sensor_id;sensor_type;location;lat;lon;timestamp;P1;durP1;ratioP1;P2;durP2;ratioP2
56653;SDS011;45096;52.302;4.634;2023-11-21T00:00:14;4.93;;;4.53;;
56653;SDS011;45096;52.302;4.634;2023-11-21T00:02:40;6.78;;;4.70;;
56653;SDS011;45096;52.302;4.634;2023-11-21T00:05:06;5.28;;;4.28;;
56653;SDS011;45096;52.302;4.634;2023-11-21T00:07:32;5.03;;;4.53;;
56653;SDS011;45096;52.302;4.634;2023-11-21T00:09:57;5.32;;;4.18;;
56653;SDS011;45096;52.302;4.634;2023-11-21T00:12:23;5.57;;;4.95;;
56653;SDS011;45096;52.302;4.634;2023-11-21T00:14:49;6.55;;;4.97;;
56653;SDS011;45096;52.302;4.634;2023-11-21T00:17:15;5.05;;;4.55;;
56653;SDS011;45096;52.302;4.634;2023-11-21T00:19:40;8.50;;;4.97;;
56653;SDS011;45096;52.302;4.634;2023-11-21T00:22:06;4.78;;;4.32;;
56653;SDS011;45096;52.302;4.634;2023-11-21T00:24:31;5.70;;;4.72;;
56653;SDS011;45096;52.302;4.634;2023-11-21T00:26:56;6.15;;;4.50;;
56653;SDS011;45096;52.302;4.634;2023-11-21T00:29:22;5.30;;;4.78;;
56653;SDS011;45096;52.302;4.634;2023-11-21T00:31:49;7.03;;;4.75;;
56653;SDS011;45096;52.302;4.634;2023-11-21T00:34:14;5.03;;;4.53;;
56653;SDS011;45096;52.302;4.634;2023-11-21T00:36:39;9.88;;;5.07;;
56653;SDS011;45096;52.302;4.634;2023-11-21T00:39:05;5.28;;;4.43;;
56653;SDS011;45096;52.302;4.634;2023-11-21T00:41:30;5.80;;;4.28;;
56653;SDS011;45096;52.302;4.634;2023-11-21T00:43:56;6.22;;;3.88;;
56653;SDS011;45096;52.302;4.634;2023-11-21T00:46:21;5.20;;;4.60;;
56653;SDS011;45096;52.302;4.634;2023-11-21T00:48:48;5.93;;;4.25;;
56653;SDS011;45096;52.302;4.634;2023-11-21T00:51:13;5.03;;;4.63;;
56653;SDS011;45096;52.302;4.634;2023-11-21T00:53:38;5.25;;;4.50;;
56653;SDS011;45096;52.302;4.634;2023-11-21T00:56:04;4.40;;;3.95;;
56653;SDS011;45096;52.302;4.634;2023-11-21T00:58:30;6.30;;;4.43;;
56653;SDS011;45096;52.302;4.634;2023-11-21T01:00:56;5.47;;;4.65;;
56653;SDS011;45096;52.302;4.634;2023-11-21T01:03:21;5.50;;;3.92;;
56653;SDS011;45096;52.302;4.634;2023-11-21T01:05:48;4.85;;;4.25;;
56653;SDS011;45096;52.302;4.634;2023-11-21T01:08:13;4.72;;;3.90;;
56653;SDS011;45096;52.302;4.634;2023-11-21T01:10:39;6.13;;;4.32;;
56653;SDS011;45096;52.302;4.634;2023-11-21T01:13:04;5.97;;;4.00;;
56653;SDS011;45096;52.302;4.634;2023-11-21T01:15:29;5.15;;;4.13;;
56653;SDS011;45096;52.302;4.634;2023-11-21T01:17:55;5.53;;;4.15;;
56653;SDS011;45096;52.302;4.634;2023-11-21T01:20:20;4.10;;;3.47;;
56653;SDS011;45096;52.302;4.634;2023-11-21T01:22:47;4.75;;;4.32;;
56653;SDS011;45096;52.302;4.634;2023-11-21T01:25:12;4.65;;;3.70;;
56653;SDS011;45096;52.302;4.634;2023-11-21T01:27:38;6.22;;;4.50;;
56653;SDS011;45096;52.302;4.634;2023-11-21T01:30:04;5.80;;;4.30;;
56653;SDS011;45096;52.302;4.634;2023-11-21T01:32:30;6.75;;;3.83;;
56653;SDS011;45096;52.302;4.634;2023-11-21T01:34:55;4.07;;;3.70;;
56653;SDS011;45096;52.302;4.634;2023-11-21T01:37:21;4.63;;;3.40;;
56653;SDS011;45096;52.302;4.634;2023-11-21T01:39:47;3.55;;;3.25;;
56653;SDS011;45096;52.302;4.634;2023-11-21T01:42:13;6.80;;;4.30;;
56653;SDS011;45096;52.302;4.634;2023-11-21T01:44:38;4.00;;;3.60;;
56653;SDS011;45096;52.302;4.634;2023-11-21T01:47:06;4.03;;;3.53;;
56653;SDS011;45096;52.302;4.634;2023-11-21T01:49:33;3.60;;;3.33;;
56653;SDS011;45096;52.302;4.634;2023-11-21T01:51:59;6.40;;;3.38;;
56653;SDS011;45096;52.302;4.634;2023-11-21T01:54:24;4.63;;;3.70;;
56653;SDS011;45096;52.302;4.634;2023-11-21T01:56:51;6.50;;;3.78;;
56653;SDS011;45096;52.302;4.634;2023-11-21T01:59:18;5.65;;;3.50;;
56653;SDS011;45096;52.302;4.634;2023-11-21T02:01:45;3.85;;;3.42;;
56653;SDS011;45096;52.302;4.634;2023-11-21T02:04:10;4.68;;;3.15;;
56653;SDS011;45096;52.302;4.634;2023-11-21T02:06:36;3.75;;;3.45;;
56653;SDS011;45096;52.302;4.634;2023-11-21T02:09:01;5.68;;;3.30;;
56653;SDS011;45096;52.302;4.634;2023-11-21T02:11:27;3.30;;;3.08;;
56653;SDS011;45096;52.302;4.634;2023-11-21T02:13:54;3.25;;;2.95;;
56653;SDS011;45096;52.302;4.634;2023-11-21T02:16:19;3.17;;;2.97;;
56653;SDS011;45096;52.302;4.634;2023-11-21T02:18:45;4.50;;;3.25;;
56653;SDS011;45096;52.302;4.634;2023-11-21T02:21:10;3.70;;;3.30;;
56653;SDS011;45096;52.302;4.634;2023-11-21T02:23:37;3.00;;;2.70;;
56653;SDS011;45096;52.302;4.634;2023-11-21T02:26:02;3.38;;;2.97;;
56653;SDS011;45096;52.302;4.634;2023-11-21T02:28:28;3.83;;;3.42;;
56653;SDS011;45096;52.302;4.634;2023-11-21T02:30:53;5.30;;;3.35;;
56653;SDS011;45096;52.302;4.634;2023-11-21T02:33:19;4.75;;;3.08;;
56653;SDS011;45096;52.302;4.634;2023-11-21T02:35:44;4.03;;;3.33;;
56653;SDS011;45096;52.302;4.634;2023-11-21T02:38:09;5.85;;;4.45;;
56653;SDS011;45096;52.302;4.634;2023-11-21T02:40:36;4.03;;;3.28;;
56653;SDS011;45096;52.302;4.634;2023-11-21T02:43:02;2.83;;;2.63;;
56653;SDS011;45096;52.302;4.634;2023-11-21T02:45:27;3.67;;;3.38;;
56653;SDS011;45096;52.302;4.634;2023-11-21T02:47:52;3.80;;;3.08;;
56653;SDS011;45096;52.302;4.634;2023-11-21T02:50:18;4.20;;;3.90;;
56653;SDS011;45096;52.302;4.634;2023-11-21T02:52:43;4.63;;;3.45;;
56653;SDS011;45096;52.302;4.634;2023-11-21T02:55:09;3.35;;;3.05;;
56653;SDS011;45096;52.302;4.634;2023-11-21T02:57:36;3.22;;;3.00;;
56653;SDS011;45096;52.302;4.634;2023-11-21T03:00:01;2.88;;;2.67;;
56653;SDS011;45096;52.302;4.634;2023-11-21T03:02:27;3.42;;;2.88;;
56653;SDS011;45096;52.302;4.634;2023-11-21T03:04:52;3.55;;;3.22;;
56653;SDS011;45096;52.302;4.634;2023-11-21T03:07:18;4.18;;;3.00;;
56653;SDS011;45096;52.302;4.634;2023-11-21T03:09:43;3.22;;;3.00;;
56653;SDS011;45096;52.302;4.634;2023-11-21T03:12:09;2.95;;;2.85;;
56653;SDS011;45096;52.302;4.634;2023-11-21T03:14:36;3.67;;;2.92;;
56653;SDS011;45096;52.302;4.634;2023-11-21T03:17:01;3.22;;;2.92;;
56653;SDS011;45096;52.302;4.634;2023-11-21T03:19:27;3.47;;;3.17;;
56653;SDS011;45096;52.302;4.634;2023-11-21T03:21:52;4.55;;;3.15;;
56653;SDS011;45096;52.302;4.634;2023-11-21T03:24:18;3.30;;;2.70;;
56653;SDS011;45096;52.302;4.634;2023-11-21T03:26:44;2.75;;;2.55;;
56653;SDS011;45096;52.302;4.634;2023-11-21T03:29:09;3.70;;;2.88;;
56653;SDS011;45096;52.302;4.634;2023-11-21T03:31:36;3.13;;;2.92;;
56653;SDS011;45096;52.302;4.634;2023-11-21T03:34:01;6.07;;;3.13;;
56653;SDS011;45096;52.302;4.634;2023-11-21T03:36:27;2.95;;;2.75;;
56653;SDS011;45096;52.302;4.634;2023-11-21T03:38:52;3.38;;;3.08;;
56653;SDS011;45096;52.302;4.634;2023-11-21T03:41:18;2.33;;;2.13;;
56653;SDS011;45096;52.302;4.634;2023-11-21T03:43:43;6.03;;;2.97;;
56653;SDS011;45096;52.302;4.634;2023-11-21T03:46:08;3.15;;;2.85;;
56653;SDS011;45096;52.302;4.634;2023-11-21T03:48:35;2.83;;;2.63;;
56653;SDS011;45096;52.302;4.634;2023-11-21T03:51:01;4.13;;;2.60;;
56653;SDS011;45096;52.302;4.634;2023-11-21T03:53:26;2.72;;;2.53;;
56653;SDS011;45096;52.302;4.634;2023-11-21T03:55:51;2.72;;;2.53;;
56653;SDS011;45096;52.302;4.634;2023-11-21T03:58:17;2.78;;;2.58;;
56653;SDS011;45096;52.302;4.634;2023-11-21T04:00:42;3.22;;;3.03;;
56653;SDS011;45096;52.302;4.634;2023-11-21T04:03:08;3.17;;;2.78;;
56653;SDS011;45096;52.302;4.634;2023-11-21T04:05:34;3.17;;;2.88;;
56653;SDS011;45096;52.302;4.634;2023-11-21T04:08:00;3.15;;;2.92;;
56653;SDS011;45096;52.302;4.634;2023-11-21T04:10:25;2.60;;;2.40;;
56653;SDS011;45096;52.302;4.634;2023-11-21T04:12:51;2.63;;;2.42;;
56653;SDS011;45096;52.302;4.634;2023-11-21T04:15:16;2.95;;;2.75;;
56653;SDS011;45096;52.302;4.634;2023-11-21T04:17:42;3.25;;;3.08;;
56653;SDS011;45096;52.302;4.634;2023-11-21T04:20:07;2.25;;;2.13;;
56653;SDS011;45096;52.302;4.634;2023-11-21T04:22:35;3.55;;;2.72;;
56653;SDS011;45096;52.302;4.634;2023-11-21T04:25:02;2.78;;;2.58;;
56653;SDS011;45096;52.302;4.634;2023-11-21T04:27:27;3.75;;;2.70;;
56653;SDS011;45096;52.302;4.634;2023-11-21T04:29:53;2.97;;;2.78;;
56653;SDS011;45096;52.302;4.634;2023-11-21T04:32:19;3.13;;;2.90;;
56653;SDS011;45096;52.302;4.634;2023-11-21T04:34:44;5.28;;;3.00;;
56653;SDS011;45096;52.302;4.634;2023-11-21T04:37:10;5.07;;;2.78;;
56653;SDS011;45096;52.302;4.634;2023-11-21T04:39:36;3.30;;;3.10;;
56653;SDS011;45096;52.302;4.634;2023-11-21T04:42:02;2.72;;;2.50;;
56653;SDS011;45096;52.302;4.634;2023-11-21T04:44:28;3.88;;;3.22;;
56653;SDS011;45096;52.302;4.634;2023-11-21T04:46:53;3.05;;;2.75;;
56653;SDS011;45096;52.302;4.634;2023-11-21T04:49:18;2.78;;;2.58;;
56653;SDS011;45096;52.302;4.634;2023-11-21T04:51:44;3.25;;;2.58;;
56653;SDS011;45096;52.302;4.634;2023-11-21T04:54:09;2.42;;;2.22;;
56653;SDS011;45096;52.302;4.634;2023-11-21T04:56:36;2.45;;;2.35;;
56653;SDS011;45096;52.302;4.634;2023-11-21T04:59:01;3.33;;;2.63;;
56653;SDS011;45096;52.302;4.634;2023-11-21T05:01:27;2.25;;;2.15;;
56653;SDS011;45096;52.302;4.634;2023-11-21T05:03:52;2.25;;;2.15;;
56653;SDS011;45096;52.302;4.634;2023-11-21T05:06:18;2.30;;;2.10;;
56653;SDS011;45096;52.302;4.634;2023-11-21T05:08:43;2.60;;;2.42;;
56653;SDS011;45096;52.302;4.634;2023-11-21T05:11:08;2.20;;;2.10;;
56653;SDS011;45096;52.302;4.634;2023-11-21T05:13:35;2.10;;;2.00;;
56653;SDS011;45096;52.302;4.634;2023-11-21T05:16:01;2.53;;;2.30;;
56653;SDS011;45096;52.302;4.634;2023-11-21T05:18:26;2.83;;;2.63;;
56653;SDS011;45096;52.302;4.634;2023-11-21T05:20:51;2.42;;;2.17;;
56653;SDS011;45096;52.302;4.634;2023-11-21T05:23:17;2.40;;;2.30;;
56653;SDS011;45096;52.302;4.634;2023-11-21T05:25:42;2.20;;;2.00;;
56653;SDS011;45096;52.302;4.634;2023-11-21T05:28:08;2.70;;;2.50;;
56653;SDS011;45096;52.302;4.634;2023-11-21T05:30:34;2.00;;;1.90;;
56653;SDS011;45096;52.302;4.634;2023-11-21T05:33:00;1.98;;;1.88;;
56653;SDS011;45096;52.302;4.634;2023-11-21T05:35:25;2.60;;;2.30;;
56653;SDS011;45096;52.302;4.634;2023-11-21T05:37:50;1.90;;;1.80;;
56653;SDS011;45096;52.302;4.634;2023-11-21T05:40:16;2.13;;;2.03;;
56653;SDS011;45096;52.302;4.634;2023-11-21T05:42:41;3.97;;;2.08;;
56653;SDS011;45096;52.302;4.634;2023-11-21T05:45:07;2.13;;;1.92;;
56653;SDS011;45096;52.302;4.634;2023-11-21T05:47:34;2.80;;;2.55;;
56653;SDS011;45096;52.302;4.634;2023-11-21T05:50:01;2.03;;;1.80;;
56653;SDS011;45096;52.302;4.634;2023-11-21T05:52:26;2.40;;;2.17;;
56653;SDS011;45096;52.302;4.634;2023-11-21T05:54:51;2.30;;;2.10;;
56653;SDS011;45096;52.302;4.634;2023-11-21T05:57:17;2.80;;;2.25;;
56653;SDS011;45096;52.302;4.634;2023-11-21T05:59:42;2.10;;;1.98;;
56653;SDS011;45096;52.302;4.634;2023-11-21T06:02:08;1.95;;;1.95;;
56653;SDS011;45096;52.302;4.634;2023-11-21T06:04:34;3.17;;;2.20;;
56653;SDS011;45096;52.302;4.634;2023-11-21T06:07:00;2.25;;;2.10;;
56653;SDS011;45096;52.302;4.634;2023-11-21T06:09:25;2.75;;;1.77;;
56653;SDS011;45096;52.302;4.634;2023-11-21T06:11:51;2.10;;;2.00;;
56653;SDS011;45096;52.302;4.634;2023-11-21T06:14:16;2.38;;;1.90;;
56653;SDS011;45096;52.302;4.634;2023-11-21T06:16:41;1.92;;;1.83;;
56653;SDS011;45096;52.302;4.634;2023-11-21T06:19:07;2.17;;;2.08;;
56653;SDS011;45096;52.302;4.634;2023-11-21T06:21:34;4.70;;;1.90;;
56653;SDS011;45096;52.302;4.634;2023-11-21T06:23:59;6.72;;;1.92;;
56653;SDS011;45096;52.302;4.634;2023-11-21T06:26:24;3.47;;;2.10;;
56653;SDS011;45096;52.302;4.634;2023-11-21T06:28:50;2.80;;;2.08;;
56653;SDS011;45096;52.302;4.634;2023-11-21T06:31:15;4.05;;;2.22;;
56653;SDS011;45096;52.302;4.634;2023-11-21T06:33:41;2.38;;;2.28;;
56653;SDS011;45096;52.302;4.634;2023-11-21T06:36:06;4.50;;;2.40;;
56653;SDS011;45096;52.302;4.634;2023-11-21T06:38:34;6.30;;;2.08;;
56653;SDS011;45096;52.302;4.634;2023-11-21T06:41:00;2.22;;;2.05;;
56653;SDS011;45096;52.302;4.634;2023-11-21T06:43:25;2.20;;;2.10;;
56653;SDS011;45096;52.302;4.634;2023-11-21T06:45:51;4.28;;;2.22;;
56653;SDS011;45096;52.302;4.634;2023-11-21T06:48:16;2.05;;;1.95;;
56653;SDS011;45096;52.302;4.634;2023-11-21T06:50:41;2.10;;;1.70;;
56653;SDS011;45096;52.302;4.634;2023-11-21T06:53:07;3.85;;;2.00;;
56653;SDS011;45096;52.302;4.634;2023-11-21T06:55:34;4.65;;;2.15;;
56653;SDS011;45096;52.302;4.634;2023-11-21T06:57:59;4.20;;;1.85;;
56653;SDS011;45096;52.302;4.634;2023-11-21T07:00:25;2.67;;;1.83;;
56653;SDS011;45096;52.302;4.634;2023-11-21T07:02:50;3.05;;;1.90;;
56653;SDS011;45096;52.302;4.634;2023-11-21T07:05:16;2.17;;;1.98;;
56653;SDS011;45096;52.302;4.634;2023-11-21T07:07:42;3.08;;;2.53;;
56653;SDS011;45096;52.302;4.634;2023-11-21T07:10:07;2.00;;;1.90;;
56653;SDS011;45096;52.302;4.634;2023-11-21T07:12:34;3.00;;;2.10;;
56653;SDS011;45096;52.302;4.634;2023-11-21T07:15:00;2.13;;;2.03;;
56653;SDS011;45096;52.302;4.634;2023-11-21T07:17:25;2.80;;;1.95;;
56653;SDS011;45096;52.302;4.634;2023-11-21T07:19:51;2.38;;;2.03;;
56653;SDS011;45096;52.302;4.634;2023-11-21T07:22:16;4.78;;;2.00;;
56653;SDS011;45096;52.302;4.634;2023-11-21T07:24:42;2.72;;;2.47;;
56653;SDS011;45096;52.302;4.634;2023-11-21T07:27:08;4.75;;;2.40;;
56653;SDS011;45096;52.302;4.634;2023-11-21T07:29:35;2.70;;;2.30;;
56653;SDS011;45096;52.302;4.634;2023-11-21T07:32:00;3.03;;;2.83;;
56653;SDS011;45096;52.302;4.634;2023-11-21T07:34:26;5.50;;;2.28;;
56653;SDS011;45096;52.302;4.634;2023-11-21T07:36:51;3.00;;;2.28;;
56653;SDS011;45096;52.302;4.634;2023-11-21T07:39:17;3.45;;;2.15;;
56653;SDS011;45096;52.302;4.634;2023-11-21T07:41:42;5.25;;;2.45;;
56653;SDS011;45096;52.302;4.634;2023-11-21T07:44:07;3.53;;;2.20;;
56653;SDS011;45096;52.302;4.634;2023-11-21T07:46:34;3.38;;;2.60;;
56653;SDS011;45096;52.302;4.634;2023-11-21T07:48:59;4.63;;;2.90;;
56653;SDS011;45096;52.302;4.634;2023-11-21T07:51:25;5.13;;;2.42;;
56653;SDS011;45096;52.302;4.634;2023-11-21T07:53:50;7.15;;;3.13;;
56653;SDS011;45096;52.302;4.634;2023-11-21T07:56:16;5.07;;;3.35;;
56653;SDS011;45096;52.302;4.634;2023-11-21T07:58:41;5.72;;;3.10;;
56653;SDS011;45096;52.302;4.634;2023-11-21T08:01:07;3.85;;;3.03;;
56653;SDS011;45096;52.302;4.634;2023-11-21T08:03:33;2.92;;;2.47;;
56653;SDS011;45096;52.302;4.634;2023-11-21T08:05:59;7.35;;;2.95;;
56653;SDS011;45096;52.302;4.634;2023-11-21T08:08:24;4.03;;;2.35;;
56653;SDS011;45096;52.302;4.634;2023-11-21T08:10:50;4.75;;;3.08;;
56653;SDS011;45096;52.302;4.634;2023-11-21T08:13:15;3.55;;;3.25;;
56653;SDS011;45096;52.302;4.634;2023-11-21T08:15:41;3.50;;;2.53;;
56653;SDS011;45096;52.302;4.634;2023-11-21T08:18:06;5.32;;;3.30;;
56653;SDS011;45096;52.302;4.634;2023-11-21T08:20:33;4.85;;;2.50;;
56653;SDS011;45096;52.302;4.634;2023-11-21T08:22:58;3.20;;;2.90;;
56653;SDS011;45096;52.302;4.634;2023-11-21T08:25:24;5.70;;;3.20;;
56653;SDS011;45096;52.302;4.634;2023-11-21T08:27:49;4.82;;;2.78;;
56653;SDS011;45096;52.302;4.634;2023-11-21T08:30:15;6.72;;;3.67;;
56653;SDS011;45096;52.302;4.634;2023-11-21T08:32:40;6.43;;;3.58;;
56653;SDS011;45096;52.302;4.634;2023-11-21T08:35:07;4.68;;;3.58;;
56653;SDS011;45096;52.302;4.634;2023-11-21T08:37:34;5.45;;;3.08;;
56653;SDS011;45096;52.302;4.634;2023-11-21T08:39:59;6.65;;;3.53;;
56653;SDS011;45096;52.302;4.634;2023-11-21T08:42:25;5.15;;;3.20;;
56653;SDS011;45096;52.302;4.634;2023-11-21T08:44:50;6.15;;;2.88;;
56653;SDS011;45096;52.302;4.634;2023-11-21T08:47:15;3.50;;;3.20;;
56653;SDS011;45096;52.302;4.634;2023-11-21T08:49:41;4.80;;;3.67;;
56653;SDS011;45096;52.302;4.634;2023-11-21T08:52:06;3.30;;;3.00;;
56653;SDS011;45096;52.302;4.634;2023-11-21T08:54:33;3.38;;;3.08;;
56653;SDS011;45096;52.302;4.634;2023-11-21T08:56:58;5.93;;;3.70;;
56653;SDS011;45096;52.302;4.634;2023-11-21T08:59:25;6.47;;;3.67;;
56653;SDS011;45096;52.302;4.634;2023-11-21T09:01:50;6.00;;;4.25;;
56653;SDS011;45096;52.302;4.634;2023-11-21T09:04:16;7.07;;;4.28;;
56653;SDS011;45096;52.302;4.634;2023-11-21T09:06:41;5.28;;;4.28;;
56653;SDS011;45096;52.302;4.634;2023-11-21T09:09:06;6.53;;;4.22;;
56653;SDS011;45096;52.302;4.634;2023-11-21T09:11:33;4.05;;;3.65;;
56653;SDS011;45096;52.302;4.634;2023-11-21T09:13:59;4.47;;;4.07;;
56653;SDS011;45096;52.302;4.634;2023-11-21T09:16:24;6.32;;;3.92;;
56653;SDS011;45096;52.302;4.634;2023-11-21T09:18:50;5.22;;;4.50;;
56653;SDS011;45096;52.302;4.634;2023-11-21T09:21:15;5.72;;;4.03;;
56653;SDS011;45096;52.302;4.634;2023-11-21T09:23:40;5.10;;;4.45;;
56653;SDS011;45096;52.302;4.634;2023-11-21T09:26:07;4.88;;;4.38;;
56653;SDS011;45096;52.302;4.634;2023-11-21T09:28:34;5.25;;;4.00;;
56653;SDS011;45096;52.302;4.634;2023-11-21T09:31:00;7.05;;;4.10;;
56653;SDS011;45096;52.302;4.634;2023-11-21T09:33:25;4.50;;;3.97;;
56653;SDS011;45096;52.302;4.634;2023-11-21T09:35:50;4.40;;;3.72;;
56653;SDS011;45096;52.302;4.634;2023-11-21T09:38:16;4.72;;;3.90;;
56653;SDS011;45096;52.302;4.634;2023-11-21T09:40:41;5.10;;;4.35;;
56653;SDS011;45096;52.302;4.634;2023-11-21T09:43:08;4.45;;;4.05;;
56653;SDS011;45096;52.302;4.634;2023-11-21T09:45:35;6.03;;;4.07;;
56653;SDS011;45096;52.302;4.634;2023-11-21T09:48:02;5.78;;;4.18;;
56653;SDS011;45096;52.302;4.634;2023-11-21T09:50:27;5.57;;;4.95;;
56653;SDS011;45096;52.302;4.634;2023-11-21T09:52:58;5.90;;;4.10;;
56653;SDS011;45096;52.302;4.634;2023-11-21T09:55:27;5.50;;;4.20;;
56653;SDS011;45096;52.302;4.634;2023-11-21T09:57:53;5.60;;;4.78;;
56653;SDS011;45096;52.302;4.634;2023-11-21T10:00:19;8.52;;;4.88;;
56653;SDS011;45096;52.302;4.634;2023-11-21T10:02:47;6.57;;;4.40;;
56653;SDS011;45096;52.302;4.634;2023-11-21T10:05:13;6.35;;;4.65;;
56653;SDS011;45096;52.302;4.634;2023-11-21T10:07:38;6.93;;;4.90;;
56653;SDS011;45096;52.302;4.634;2023-11-21T10:10:05;5.78;;;4.43;;
56653;SDS011;45096;52.302;4.634;2023-11-21T10:12:31;4.43;;;3.97;;
56653;SDS011;45096;52.302;4.634;2023-11-21T10:14:57;8.23;;;4.82;;
56653;SDS011;45096;52.302;4.634;2023-11-21T10:17:24;7.32;;;5.28;;
56653;SDS011;45096;52.302;4.634;2023-11-21T10:19:52;7.55;;;5.82;;
56653;SDS011;45096;52.302;4.634;2023-11-21T10:22:18;5.95;;;4.38;;
56653;SDS011;45096;52.302;4.634;2023-11-21T10:24:43;5.45;;;4.53;;
56653;SDS011;45096;52.302;4.634;2023-11-21T10:27:09;6.75;;;5.05;;
56653;SDS011;45096;52.302;4.634;2023-11-21T10:29:34;6.80;;;5.05;;
56653;SDS011;45096;52.302;4.634;2023-11-21T10:32:00;7.95;;;5.55;;
56653;SDS011;45096;52.302;4.634;2023-11-21T10:34:25;7.60;;;5.68;;
56653;SDS011;45096;52.302;4.634;2023-11-21T10:36:52;7.75;;;5.80;;
56653;SDS011;45096;52.302;4.634;2023-11-21T10:39:17;10.13;;;6.20;;
56653;SDS011;45096;52.302;4.634;2023-11-21T10:41:43;10.15;;;6.45;;
56653;SDS011;45096;52.302;4.634;2023-11-21T10:44:09;10.13;;;6.03;;
56653;SDS011;45096;52.302;4.634;2023-11-21T10:46:34;7.95;;;5.75;;
56653;SDS011;45096;52.302;4.634;2023-11-21T10:49:00;9.70;;;6.72;;
56653;SDS011;45096;52.302;4.634;2023-11-21T10:51:25;9.82;;;6.18;;
56653;SDS011;45096;52.302;4.634;2023-11-21T10:53:52;8.80;;;6.20;;
56653;SDS011;45096;52.302;4.634;2023-11-21T10:56:18;9.18;;;6.65;;
56653;SDS011;45096;52.302;4.634;2023-11-21T10:58:44;7.70;;;5.82;;
56653;SDS011;45096;52.302;4.634;2023-11-21T11:01:10;8.82;;;6.63;;
56653;SDS011;45096;52.302;4.634;2023-11-21T11:03:36;8.30;;;5.63;;
56653;SDS011;45096;52.302;4.634;2023-11-21T11:06:02;7.75;;;5.78;;
56653;SDS011;45096;52.302;4.634;2023-11-21T11:08:27;7.43;;;5.95;;
56653;SDS011;45096;52.302;4.634;2023-11-21T11:10:54;7.57;;;6.40;;
56653;SDS011;45096;52.302;4.634;2023-11-21T11:13:19;9.07;;;6.18;;
56653;SDS011;45096;52.302;4.634;2023-11-21T11:15:46;7.63;;;5.75;;
56653;SDS011;45096;52.302;4.634;2023-11-21T11:18:12;9.88;;;6.32;;
56653;SDS011;45096;52.302;4.634;2023-11-21T11:20:38;6.35;;;5.25;;
56653;SDS011;45096;52.302;4.634;2023-11-21T11:23:09;7.55;;;5.43;;
56653;SDS011;45096;52.302;4.634;2023-11-21T11:25:46;6.82;;;5.90;;
56653;SDS011;45096;52.302;4.634;2023-11-21T11:28:22;9.15;;;6.53;;
56653;SDS011;45096;52.302;4.634;2023-11-21T11:30:57;7.15;;;5.72;;
56653;SDS011;45096;52.302;4.634;2023-11-21T11:33:28;8.38;;;6.38;;
56653;SDS011;45096;52.302;4.634;2023-11-21T11:36:00;6.72;;;5.95;;
56653;SDS011;45096;52.302;4.634;2023-11-21T11:38:30;6.82;;;6.10;;
56653;SDS011;45096;52.302;4.634;2023-11-21T11:40:56;8.00;;;6.63;;
56653;SDS011;45096;52.302;4.634;2023-11-21T11:43:26;8.77;;;6.18;;
56653;SDS011;45096;52.302;4.634;2023-11-21T11:45:52;8.07;;;6.25;;
56653;SDS011;45096;52.302;4.634;2023-11-21T11:48:21;7.85;;;5.60;;
56653;SDS011;45096;52.302;4.634;2023-11-21T11:51:00;9.57;;;6.95;;
56653;SDS011;45096;52.302;4.634;2023-11-21T11:53:26;8.60;;;6.00;;
56653;SDS011;45096;52.302;4.634;2023-11-21T11:55:58;9.02;;;6.75;;
56653;SDS011;45096;52.302;4.634;2023-11-21T11:58:46;8.18;;;6.18;;
56653;SDS011;45096;52.302;4.634;2023-11-21T12:01:12;8.25;;;6.45;;
56653;SDS011;45096;52.302;4.634;2023-11-21T12:03:37;7.40;;;6.22;;
56653;SDS011;45096;52.302;4.634;2023-11-21T12:06:03;9.55;;;7.28;;
56653;SDS011;45096;52.302;4.634;2023-11-21T12:08:30;9.48;;;7.63;;
56653;SDS011;45096;52.302;4.634;2023-11-21T12:10:55;10.60;;;6.85;;
56653;SDS011;45096;52.302;4.634;2023-11-21T12:13:21;8.55;;;7.22;;
56653;SDS011;45096;52.302;4.634;2023-11-21T12:15:48;10.80;;;7.55;;
56653;SDS011;45096;52.302;4.634;2023-11-21T12:18:13;9.18;;;6.53;;
56653;SDS011;45096;52.302;4.634;2023-11-21T12:20:38;11.38;;;8.02;;
56653;SDS011;45096;52.302;4.634;2023-11-21T12:23:04;9.02;;;7.03;;
56653;SDS011;45096;52.302;4.634;2023-11-21T12:25:31;9.15;;;7.07;;
56653;SDS011;45096;52.302;4.634;2023-11-21T12:27:56;9.80;;;7.05;;
56653;SDS011;45096;52.302;4.634;2023-11-21T12:30:23;8.15;;;6.93;;
56653;SDS011;45096;52.302;4.634;2023-11-21T12:32:50;8.40;;;7.35;;
56653;SDS011;45096;52.302;4.634;2023-11-21T12:35:17;6.43;;;5.70;;
56653;SDS011;45096;52.302;4.634;2023-11-21T12:37:42;8.65;;;6.88;;
56653;SDS011;45096;52.302;4.634;2023-11-21T12:40:08;7.82;;;6.22;;
56653;SDS011;45096;52.302;4.634;2023-11-21T12:42:34;8.23;;;6.32;;
56653;SDS011;45096;52.302;4.634;2023-11-21T12:45:09;8.25;;;6.43;;
56653;SDS011;45096;52.302;4.634;2023-11-21T12:47:43;8.38;;;6.43;;
56653;SDS011;45096;52.302;4.634;2023-11-21T12:50:11;7.78;;;6.03;;
56653;SDS011;45096;52.302;4.634;2023-11-21T12:52:36;8.48;;;6.22;;
56653;SDS011;45096;52.302;4.634;2023-11-21T12:55:02;7.28;;;5.55;;
56653;SDS011;45096;52.302;4.634;2023-11-21T12:57:28;8.10;;;6.28;;
56653;SDS011;45096;52.302;4.634;2023-11-21T12:59:56;8.45;;;6.75;;
56653;SDS011;45096;52.302;4.634;2023-11-21T13:02:22;10.43;;;6.88;;
56653;SDS011;45096;52.302;4.634;2023-11-21T13:04:51;9.98;;;7.07;;
56653;SDS011;45096;52.302;4.634;2023-11-21T13:07:18;10.02;;;7.00;;
56653;SDS011;45096;52.302;4.634;2023-11-21T13:09:44;8.43;;;6.07;;
56653;SDS011;45096;52.302;4.634;2023-11-21T13:12:09;8.10;;;6.63;;
56653;SDS011;45096;52.302;4.634;2023-11-21T13:14:35;7.85;;;6.30;;
56653;SDS011;45096;52.302;4.634;2023-11-21T13:17:00;7.75;;;6.10;;
56653;SDS011;45096;52.302;4.634;2023-11-21T13:19:25;8.32;;;6.90;;
56653;SDS011;45096;52.302;4.634;2023-11-21T13:21:51;9.00;;;5.97;;
56653;SDS011;45096;52.302;4.634;2023-11-21T13:24:18;8.38;;;6.13;;
56653;SDS011;45096;52.302;4.634;2023-11-21T13:26:43;6.90;;;6.20;;
56653;SDS011;45096;52.302;4.634;2023-11-21T13:29:09;9.25;;;7.13;;
56653;SDS011;45096;52.302;4.634;2023-11-21T13:31:34;11.77;;;7.53;;
56653;SDS011;45096;52.302;4.634;2023-11-21T13:34:00;11.70;;;7.35;;
56653;SDS011;45096;52.302;4.634;2023-11-21T13:36:25;9.63;;;7.20;;
56653;SDS011;45096;52.302;4.634;2023-11-21T13:38:51;9.32;;;7.40;;
56653;SDS011;45096;52.302;4.634;2023-11-21T13:41:18;7.95;;;6.88;;
56653;SDS011;45096;52.302;4.634;2023-11-21T13:43:43;9.07;;;6.85;;
56653;SDS011;45096;52.302;4.634;2023-11-21T13:46:09;7.88;;;6.60;;
56653;SDS011;45096;52.302;4.634;2023-11-21T13:48:34;8.93;;;7.38;;
56653;SDS011;45096;52.302;4.634;2023-11-21T13:51:00;12.43;;;8.95;;
56653;SDS011;45096;52.302;4.634;2023-11-21T13:53:25;11.43;;;8.95;;
56653;SDS011;45096;52.302;4.634;2023-11-21T13:55:51;9.45;;;7.95;;
56653;SDS011;45096;52.302;4.634;2023-11-21T13:58:19;11.10;;;7.75;;
56653;SDS011;45096;52.302;4.634;2023-11-21T14:00:44;8.48;;;7.35;;
56653;SDS011;45096;52.302;4.634;2023-11-21T14:03:10;12.05;;;7.80;;
56653;SDS011;45096;52.302;4.634;2023-11-21T14:05:35;10.32;;;7.93;;
56653;SDS011;45096;52.302;4.634;2023-11-21T14:08:01;9.75;;;7.85;;
56653;SDS011;45096;52.302;4.634;2023-11-21T14:10:26;9.15;;;7.50;;
56653;SDS011;45096;52.302;4.634;2023-11-21T14:12:51;9.05;;;7.00;;
56653;SDS011;45096;52.302;4.634;2023-11-21T14:15:18;10.57;;;8.20;;
56653;SDS011;45096;52.302;4.634;2023-11-21T14:17:43;8.70;;;7.30;;
56653;SDS011;45096;52.302;4.634;2023-11-21T14:20:09;9.32;;;6.97;;
56653;SDS011;45096;52.302;4.634;2023-11-21T14:22:35;10.38;;;7.75;;
56653;SDS011;45096;52.302;4.634;2023-11-21T14:25:00;8.43;;;7.00;;
56653;SDS011;45096;52.302;4.634;2023-11-21T14:27:26;8.18;;;6.90;;
56653;SDS011;45096;52.302;4.634;2023-11-21T14:29:51;9.10;;;6.65;;
56653;SDS011;45096;52.302;4.634;2023-11-21T14:32:18;8.05;;;6.80;;
56653;SDS011;45096;52.302;4.634;2023-11-21T14:34:44;7.75;;;6.70;;
56653;SDS011;45096;52.302;4.634;2023-11-21T14:37:09;9.93;;;6.72;;
56653;SDS011;45096;52.302;4.634;2023-11-21T14:39:34;9.35;;;6.53;;